Time;durP1;ratioP1;P1;durP2;ratioP2;P2;SDS_P1;SDS_P2;PMS_P1;PMS_P2;Temp;Humidity;BMP_temperature;BMP_pressure;BME280_temperature;BME280_humidity;BME280_pressure;Samples;Min_cycle;Max_cycle;Signal;HPM_P1;HPM_P2
2023/03/14 00:01:57;;;;;;;5.63;1.47;;;11.80;27.70;;;;;;5072788;28;20557;-71
2023/03/14 00:04:23;;;;;;;6.30;1.73;;;11.80;28.60;;;;;;5073027;28;20179;-71
2023/03/14 00:06:49;;;;;;;5.33;1.70;;;11.70;34.50;;;;;;5072700;28;20175;-71
2023/03/14 00:09:15;;;;;;;4.30;1.50;;;11.70;37.70;;;;;;5072946;28;20200;-71
2023/03/14 00:11:41;;;;;;;5.57;1.53;;;11.60;42.40;;;;;;5072782;28;20169;-71
2023/03/14 00:14:07;;;;;;;3.67;1.53;;;11.50;48.20;;;;;;5072442;28;20221;-71
2023/03/14 00:16:32;;;;;;;4.33;1.50;;;11.50;51.00;;;;;;5072900;28;20259;-71
2023/03/14 00:18:59;;;;;;;7.10;2.33;;;11.50;54.30;;;;;;5072993;28;20195;-71
2023/03/14 00:21:27;;;;;;;5.17;1.90;;;11.40;59.30;;;;;;5072157;28;20196;-71
2023/03/14 00:23:53;;;;;;;6.37;2.07;;;11.40;63.50;;;;;;5072444;28;20204;-71
2023/03/14 00:26:20;;;;;;;6.43;1.90;;;11.30;66.60;;;;;;5072840;28;20196;-71
2023/03/14 00:28:53;;;;;;;7.07;2.30;;;11.30;67.80;;;;;;5072846;28;20211;-71
2023/03/14 00:31:18;;;;;;;11.47;2.40;;;11.30;71.80;;;;;;5072730;28;20196;-71
2023/03/14 00:33:44;;;;;;;7.13;1.90;;;11.30;72.70;;;;;;5072555;28;20643;-71
2023/03/14 00:36:13;;;;;;;4.60;1.80;;;11.30;74.00;;;;;;5072265;28;20194;-71
2023/03/14 00:38:40;;;;;;;7.53;2.00;;;11.30;78.50;;;;;;5072482;28;20165;-71
2023/03/14 00:41:12;;;;;;;7.63;2.13;;;11.30;78.00;;;;;;5074884;28;20675;-72
2023/03/14 00:43:38;;;;;;;5.17;1.90;;;11.30;79.70;;;;;;5058984;28;20191;-71
2023/03/14 00:46:07;;;;;;;8.67;2.07;;;11.30;82.70;;;;;;5076301;28;20635;-71
2023/03/14 00:48:33;;;;;;;8.50;1.70;;;11.20;87.20;;;;;;5075763;28;20211;-71
2023/03/14 00:50:58;;;;;;;7.67;2.20;;;11.20;88.60;;;;;;5076025;28;20201;-71
2023/03/14 00:53:27;;;;;;;5.80;1.63;;;11.20;85.60;;;;;;5076057;28;20708;-71
2023/03/14 00:55:52;;;;;;;6.03;1.80;;;11.30;85.30;;;;;;5076027;28;20230;-71
2023/03/14 00:58:18;;;;;;;5.73;1.80;;;11.30;81.70;;;;;;5075973;28;20169;-71
2023/03/14 01:00:45;;;;;;;9.70;2.10;;;11.30;79.80;;;;;;5076043;28;20236;-71
2023/03/14 01:03:12;;;;;;;5.93;2.23;;;11.20;82.10;;;;;;5075734;28;20222;-71
2023/03/14 01:05:39;;;;;;;7.30;2.40;;;11.20;80.30;;;;;;5057937;28;20266;-71
2023/03/14 01:08:06;;;;;;;7.73;2.23;;;11.20;82.70;;;;;;5075993;28;20193;-71
2023/03/14 01:10:32;;;;;;;8.13;2.27;;;11.20;85.10;;;;;;5075739;28;20165;-71
2023/03/14 01:12:58;;;;;;;8.27;1.93;;;11.20;84.00;;;;;;5075739;28;20297;-71
2023/03/14 01:15:24;;;;;;;8.13;2.47;;;11.30;83.50;;;;;;5075552;28;20239;-71
2023/03/14 01:17:50;;;;;;;4.90;2.07;;;11.20;82.10;;;;;;5057705;28;20168;-71
2023/03/14 01:20:16;;;;;;;7.00;2.30;;;11.20;80.00;;;;;;5075684;28;20546;-71
2023/03/14 01:22:43;;;;;;;11.93;2.70;;;11.30;78.10;;;;;;5075456;28;20184;-71
2023/03/14 01:25:12;;;;;;;8.20;2.30;;;11.30;79.30;;;;;;5075612;28;20161;-71
2023/03/14 01:27:38;;;;;;;8.40;2.47;;;11.20;79.90;;;;;;5075572;28;20173;-70
2023/03/14 01:30:05;;;;;;;12.17;2.47;;;11.30;78.10;;;;;;5075418;28;20206;-70
2023/03/14 01:32:31;;;;;;;10.40;1.90;;;11.20;79.00;;;;;;5075042;28;20254;-70
2023/03/14 01:35:03;;;;;;;6.87;2.03;;;11.10;81.60;;;;;;5075339;28;20651;-70
2023/03/14 01:37:28;;;;;;;11.13;2.33;;;11.10;83.50;;;;;;5075443;28;20173;-71
2023/03/14 01:39:54;;;;;;;9.40;1.93;;;11.10;79.40;;;;;;5075250;28;20171;-71
2023/03/14 01:42:23;;;;;;;8.47;2.30;;;11.00;84.30;;;;;;5075232;28;20168;-71
2023/03/14 01:44:55;;;;;;;8.73;2.23;;;11.00;85.50;;;;;;5075117;28;20165;-71
2023/03/14 01:47:25;;;;;;;10.10;2.20;;;10.90;88.00;;;;;;5074666;28;20172;-71
2023/03/14 01:50:01;;;;;;;6.47;2.00;;;10.90;89.10;;;;;;5075393;28;20172;-71
2023/03/14 01:52:36;;;;;;;7.80;2.10;;;10.90;90.70;;;;;;5074461;28;20169;-71
2023/03/14 01:55:28;;;;;;;5.00;1.67;;;10.90;90.10;;;;;;5074987;28;20650;-71
2023/03/14 01:58:02;;;;;;;6.07;1.97;;;10.90;88.50;;;;;;5071088;28;20583;-71
2023/03/14 02:00:28;;;;;;;6.93;1.60;;;10.90;91.10;;;;;;5075012;28;20693;-71
2023/03/14 02:02:59;;;;;;;3.77;1.40;;;10.90;91.50;;;;;;5074363;28;20172;-71
2023/03/14 02:05:37;;;;;;;5.70;1.60;;;10.90;94.80;;;;;;5074971;28;20165;-71
2023/03/14 02:08:06;;;;;;;4.80;1.30;;;10.90;98.10;;;;;;5074650;28;20188;-70
2023/03/14 02:10:37;;;;;;;3.60;1.20;;;10.90;99.90;;;;;;5056902;28;20179;-70
2023/03/14 02:13:04;;;;;;;2.20;1.00;;;10.70;99.90;;;;;;5056856;28;20184;-70
2023/03/14 02:15:31;;;;;;;3.47;1.40;;;10.70;99.90;;;;;;5073983;28;20220;-70
2023/03/14 02:18:01;;;;;;;5.20;1.60;;;10.50;99.90;;;;;;5074690;28;20168;-71
2023/03/14 02:20:42;;;;;;;3.23;1.10;;;10.40;99.90;;;;;;5074286;28;20231;-71
2023/03/14 02:23:08;;;;;;;4.80;1.30;;;10.30;99.90;;;;;;5074740;28;20168;-70
2023/03/14 02:26:11;;;;;;;7.13;1.20;;;10.20;99.90;;;;;;5074460;28;20191;-72
2023/03/14 02:28:36;;;;;;;4.60;1.20;;;10.30;99.90;;;;;;5074365;28;20168;-70
2023/03/14 02:31:02;;;;;;;4.53;1.33;;;10.30;99.90;;;;;;5073718;28;20183;-70
2023/03/14 02:33:28;;;;;;;2.47;1.40;;;10.20;99.90;;;;;;5074240;28;20196;-70
2023/03/14 02:36:01;;;;;;;3.10;1.00;;;10.10;99.90;;;;;;5074394;28;20524;-71
2023/03/14 02:38:38;;;;;;;3.33;1.30;;;10.10;99.90;;;;;;5056319;28;20176;-71
2023/03/14 02:41:04;;;;;;;4.00;1.13;;;10.10;99.90;;;;;;5056024;28;20204;-71
2023/03/14 02:43:30;;;;;;;6.17;1.60;;;10.10;99.90;;;;;;5056029;28;20168;-71
2023/03/14 02:45:56;;;;;;;7.17;1.60;;;10.10;99.90;;;;;;5056055;28;20184;-71
2023/03/14 02:48:25;;;;;;;7.27;1.63;;;10.10;99.90;;;;;;5073824;28;20173;-71
2023/03/14 02:50:55;;;;;;;5.10;1.70;;;10.10;99.90;;;;;;5073962;28;20180;-71
2023/03/14 02:53:35;;;;;;;3.60;2.07;;;10.10;99.90;;;;;;5073992;28;20274;-71
2023/03/14 02:56:01;;;;;;;6.67;2.87;;;10.10;99.90;;;;;;5055969;28;20177;-71
2023/03/14 02:58:27;;;;;;;7.43;3.00;;;10.10;99.90;;;;;;5073874;28;20195;-71
2023/03/14 03:00:53;;;;;;;7.03;2.60;;;10.10;99.90;;;;;;5073339;28;20308;-71
2023/03/14 03:03:19;;;;;;;5.50;2.60;;;10.10;99.90;;;;;;5055157;28;20628;-72
2023/03/14 03:05:55;;;;;;;10.27;3.20;;;10.10;99.90;;;;;;5073383;28;20259;-71
2023/03/14 03:08:22;;;;;;;7.97;3.67;;;10.20;99.90;;;;;;5073795;28;20242;-70
2023/03/14 03:10:48;;;;;;;9.40;3.70;;;10.20;99.90;;;;;;5073309;28;20165;-70
2023/03/14 03:13:17;;;;;;;10.50;3.57;;;10.20;99.90;;;;;;5073454;28;20230;-71
2023/03/14 03:15:46;;;;;;;8.63;3.77;;;10.20;99.90;;;;;;5072865;28;20220;-71
2023/03/14 03:18:12;;;;;;;9.17;3.80;;;10.30;99.90;;;;;;5073455;28;20204;-71
2023/03/14 03:20:38;;;;;;;9.83;3.80;;;10.30;99.90;;;;;;5073070;28;20647;-71
2023/03/14 03:23:04;;;;;;;12.00;3.77;;;10.40;99.90;;;;;;5073218;28;20169;-71
2023/03/14 03:25:33;;;;;;;11.30;4.17;;;10.40;99.90;;;;;;5073250;28;20256;-71
2023/03/14 03:28:01;;;;;;;6.80;3.70;;;10.40;99.90;;;;;;5073016;28;20648;-71
2023/03/14 03:30:27;;;;;;;8.60;3.87;;;10.40;99.90;;;;;;5055301;28;20534;-70
2023/03/14 03:32:53;;;;;;;11.87;4.30;;;10.50;99.90;;;;;;5055209;28;20173;-71
2023/03/14 03:35:18;;;;;;;9.37;3.70;;;10.40;99.90;;;;;;5055527;28;20173;-71
2023/03/14 03:37:44;;;;;;;9.43;4.20;;;10.50;99.90;;;;;;5055169;28;20594;-71
2023/03/14 03:40:10;;;;;;;11.23;4.33;;;10.50;99.90;;;;;;5072801;28;20526;-70
2023/03/14 03:42:35;;;;;;;14.53;4.23;;;10.50;99.90;;;;;;5072745;28;20177;-70
2023/03/14 03:45:01;;;;;;;10.17;4.53;;;10.50;99.90;;;;;;5073098;28;20200;-70
2023/03/14 03:47:27;;;;;;;10.33;4.17;;;10.50;99.90;;;;;;5073230;28;20264;-70
2023/03/14 03:49:53;;;;;;;9.53;4.57;;;10.50;99.90;;;;;;5073096;28;20176;-70
2023/03/14 03:52:20;;;;;;;13.60;5.20;;;10.50;99.90;;;;;;5072837;28;20565;-70
2023/03/14 03:54:45;;;;;;;13.70;5.00;;;10.50;99.90;;;;;;5072980;28;20165;-70
2023/03/14 03:57:11;;;;;;;13.53;5.63;;;10.50;99.90;;;;;;5072735;28;20165;-71
2023/03/14 03:59:42;;;;;;;12.30;5.23;;;10.50;99.90;;;;;;5072592;28;20573;-70
2023/03/14 04:02:11;;;;;;;12.17;5.27;;;10.50;99.90;;;;;;5055890;28;20230;-70
2023/03/14 04:04:38;;;;;;;9.17;5.17;;;10.40;99.90;;;;;;5054575;28;20171;-71
2023/03/14 04:07:04;;;;;;;8.87;4.87;;;10.40;99.90;;;;;;5072661;28;20211;-70
2023/03/14 04:09:30;;;;;;;10.33;4.73;;;10.50;99.90;;;;;;5072757;28;20192;-71
2023/03/14 04:11:55;;;;;;;7.77;5.00;;;10.50;99.90;;;;;;5072520;28;20207;-70
2023/03/14 04:14:22;;;;;;;8.20;4.40;;;10.50;99.90;;;;;;5072169;28;20316;-71
2023/03/14 04:16:50;;;;;;;8.07;4.67;;;10.50;99.90;;;;;;5076657;28;20169;-71
2023/03/14 04:19:16;;;;;;;9.63;4.27;;;10.60;99.90;;;;;;5076111;28;20251;-71
2023/03/14 04:21:45;;;;;;;11.23;4.57;;;10.60;99.90;;;;;;5076304;28;20312;-70
2023/03/14 04:24:11;;;;;;;9.83;4.27;;;10.70;99.90;;;;;;5076398;28;20161;-69
2023/03/14 04:26:36;;;;;;;10.30;4.40;;;10.60;99.90;;;;;;5076258;28;20226;-71
2023/03/14 04:29:02;;;;;;;10.20;4.37;;;10.60;99.90;;;;;;5076272;28;20169;-69
2023/03/14 04:31:28;;;;;;;5.73;3.97;;;10.70;99.90;;;;;;5076585;28;20212;-71
2023/03/14 04:33:53;;;;;;;7.23;3.97;;;10.60;99.90;;;;;;5076016;28;20177;-70
2023/03/14 04:36:19;;;;;;;8.63;3.80;;;10.60;99.90;;;;;;5076405;28;20173;-70
2023/03/14 04:38:45;;;;;;;5.87;3.57;;;10.50;99.90;;;;;;5076490;28;20165;-70
2023/03/14 04:41:10;;;;;;;7.87;3.23;;;10.60;99.90;;;;;;5057464;28;20582;-71
2023/03/14 04:43:36;;;;;;;6.93;3.20;;;10.60;99.90;;;;;;5076078;28;20306;-71
2023/03/14 04:46:05;;;;;;;6.60;3.80;;;10.70;99.90;;;;;;5074908;28;20181;-70
2023/03/14 04:48:33;;;;;;;7.00;3.27;;;10.70;99.90;;;;;;5076129;28;20172;-71
2023/03/14 04:50:59;;;;;;;4.57;2.60;;;10.70;99.90;;;;;;5075901;28;20251;-71
2023/03/14 04:53:24;;;;;;;3.93;2.50;;;10.70;99.90;;;;;;5075366;28;20255;-70
2023/03/14 04:55:52;;;;;;;4.97;2.50;;;10.80;99.90;;;;;;5075579;28;20168;-71
2023/03/14 04:58:18;;;;;;;5.17;2.57;;;10.80;99.90;;;;;;5075905;28;20172;-71
2023/03/14 05:00:44;;;;;;;5.50;2.40;;;10.80;99.90;;;;;;5075814;28;20652;-71
2023/03/14 05:03:10;;;;;;;3.43;2.37;;;10.80;99.90;;;;;;5075555;28;20176;-71
2023/03/14 05:05:36;;;;;;;3.53;2.23;;;10.80;99.90;;;;;;5075256;28;20177;-71
2023/03/14 05:08:01;;;;;;;3.57;2.27;;;10.80;99.90;;;;;;5057018;28;20279;-70
2023/03/14 05:10:29;;;;;;;3.60;2.50;;;10.80;99.90;;;;;;5074730;28;20580;-71
2023/03/14 05:12:55;;;;;;;2.90;1.90;;;10.70;99.90;;;;;;5075458;28;20181;-71
2023/03/14 05:15:21;;;;;;;6.73;2.37;;;10.70;99.90;;;;;;5075114;28;20243;-71
2023/03/14 05:17:46;;;;;;;4.00;2.33;;;10.80;99.90;;;;;;5075173;28;20169;-71
2023/03/14 05:20:15;;;;;;;3.07;2.30;;;10.80;99.90;;;;;;5075030;28;20165;-70
2023/03/14 05:22:41;;;;;;;2.97;2.50;;;10.90;99.90;;;;;;5075198;28;20172;-70
2023/03/14 05:25:08;;;;;;;5.40;2.27;;;10.90;99.90;;;;;;5075079;28;20176;-70
2023/03/14 05:27:36;;;;;;;4.33;2.57;;;10.80;99.90;;;;;;5073948;28;20165;-70
2023/03/14 05:30:04;;;;;;;4.10;2.30;;;10.80;99.90;;;;;;5075406;28;20187;-71
2023/03/14 05:32:30;;;;;;;5.17;2.53;;;10.80;99.90;;;;;;5074945;28;20255;-71
2023/03/14 05:34:58;;;;;;;2.90;2.20;;;10.80;99.90;;;;;;5074570;28;20253;-70
2023/03/14 05:37:34;;;;;;;4.17;2.10;;;10.70;99.90;;;;;;5075144;28;20167;-71
2023/03/14 05:40:00;;;;;;;2.73;2.53;;;10.70;99.90;;;;;;5074713;28;20171;-71
2023/03/14 05:42:25;;;;;;;3.33;2.70;;;10.70;99.90;;;;;;5074628;28;20307;-70
2023/03/14 05:44:51;;;;;;;4.50;3.10;;;10.70;99.90;;;;;;5074447;28;20176;-70
2023/03/14 05:47:19;;;;;;;3.40;2.83;;;10.70;99.90;;;;;;5074276;28;20276;-70
2023/03/14 05:49:45;;;;;;;4.80;2.90;;;10.70;99.90;;;;;;5074090;28;20184;-71
2023/03/14 05:52:10;;;;;;;3.03;2.73;;;10.80;99.90;;;;;;5074196;28;20180;-71
2023/03/14 05:54:36;;;;;;;3.73;2.87;;;10.70;99.90;;;;;;5073785;28;20177;-71
2023/03/14 05:57:04;;;;;;;3.60;3.00;;;10.80;99.90;;;;;;5074768;28;20247;-71
2023/03/14 05:59:30;;;;;;;3.10;2.80;;;10.70;99.90;;;;;;5056423;28;20242;-70
2023/03/14 06:01:55;;;;;;;3.33;2.73;;;10.80;99.90;;;;;;5073898;28;20671;-70
2023/03/14 06:04:21;;;;;;;2.93;2.70;;;10.80;99.90;;;;;;5074586;28;20628;-71
2023/03/14 06:06:47;;;;;;;4.60;3.10;;;10.70;99.90;;;;;;5073893;28;20625;-70
2023/03/14 06:09:12;;;;;;;4.50;2.60;;;10.80;99.90;;;;;;5055532;28;20184;-71
2023/03/14 06:11:38;;;;;;;3.87;2.53;;;10.80;99.90;;;;;;5073613;28;20457;-72
2023/03/14 06:14:03;;;;;;;3.30;2.93;;;10.90;99.90;;;;;;5073530;28;20227;-70
2023/03/14 06:16:29;;;;;;;3.63;2.73;;;10.80;99.90;;;;;;5074184;28;20597;-70
2023/03/14 06:18:57;;;;;;;5.53;3.13;;;10.90;99.90;;;;;;5073939;28;20173;-70
2023/03/14 06:21:23;;;;;;;3.53;2.77;;;10.90;99.90;;;;;;5073138;28;20349;-72
2023/03/14 06:23:48;;;;;;;3.67;3.00;;;10.90;99.90;;;;;;5073347;28;20573;-71
2023/03/14 06:26:14;;;;;;;3.07;2.70;;;10.90;99.90;;;;;;5073790;28;20176;-70
2023/03/14 06:28:43;;;;;;;2.80;2.50;;;10.90;99.90;;;;;;5072690;28;20165;-71
2023/03/14 06:31:11;;;;;;;2.60;2.40;;;10.90;99.90;;;;;;5071429;28;20401;-71
2023/03/14 06:33:37;;;;;;;3.70;2.70;;;10.80;99.90;;;;;;5054796;28;20165;-72
2023/03/14 06:36:03;;;;;;;3.10;2.90;;;10.80;99.90;;;;;;5073335;28;20680;-71
2023/03/14 06:38:28;;;;;;;3.30;3.00;;;10.80;99.90;;;;;;5072566;28;20194;-71
2023/03/14 06:40:55;;;;;;;3.07;2.60;;;10.70;99.90;;;;;;5072696;28;20247;-71
2023/03/14 06:43:20;;;;;;;4.00;2.87;;;10.70;99.90;;;;;;5073226;28;20251;-70
2023/03/14 06:45:49;;;;;;;3.20;2.90;;;10.70;99.90;;;;;;5072939;28;20177;-70
2023/03/14 06:48:14;;;;;;;3.10;2.70;;;10.70;99.90;;;;;;5072841;28;20173;-70
2023/03/14 06:50:41;;;;;;;3.57;2.80;;;10.50;99.90;;;;;;5037703;28;20184;-70
2023/03/14 06:53:07;;;;;;;2.60;2.40;;;10.10;99.90;;;;;;5072456;28;20184;-71
2023/03/14 06:55:35;;;;;;;2.70;2.50;;;9.90;99.90;;;;;;5072590;28;20173;-71
2023/03/14 06:58:01;;;;;;;3.17;2.67;;;9.70;99.90;;;;;;5072492;28;20227;-72
2023/03/14 07:00:35;;;;;;;3.00;2.20;;;9.50;99.90;;;;;;5072185;28;20227;-70
2023/03/14 07:03:01;;;;;;;3.40;2.47;;;9.40;99.90;;;;;;5054558;28;20650;-71
2023/03/14 07:05:26;;;;;;;3.10;2.80;;;9.20;99.90;;;;;;5071751;28;20251;-72
2023/03/14 07:07:52;;;;;;;4.20;3.20;;;9.20;99.90;;;;;;5072228;28;20188;-70
2023/03/14 07:10:18;;;;;;;5.50;3.43;;;9.10;99.90;;;;;;5071984;28;20616;-70
2023/03/14 07:12:43;;;;;;;4.30;2.50;;;9.00;99.90;;;;;;5072364;28;20321;-72
2023/03/14 07:15:09;;;;;;;4.00;2.10;;;8.70;99.90;;;;;;5071575;28;20801;-72
2023/03/14 07:17:35;;;;;;;5.57;2.50;;;8.60;99.90;;;;;;5071793;28;20169;-72
2023/03/14 07:20:01;;;;;;;2.47;1.93;;;8.50;99.90;;;;;;5054142;28;20176;-71
2023/03/14 07:22:26;;;;;;;2.20;1.93;;;8.40;99.90;;;;;;5071577;28;20303;-72
2023/03/14 07:24:52;;;;;;;2.00;1.80;;;8.30;99.90;;;;;;5071773;28;20184;-73
2023/03/14 07:27:17;;;;;;;4.77;1.80;;;8.30;99.90;;;;;;5071423;28;20164;-72
2023/03/14 07:29:43;;;;;;;3.00;1.90;;;8.30;99.90;;;;;;5071256;28;20670;-73
2023/03/14 07:32:09;;;;;;;2.53;2.00;;;8.30;99.90;;;;;;5072097;28;20247;-71
2023/03/14 07:34:35;;;;;;;2.77;2.17;;;8.20;99.90;;;;;;5071709;28;20168;-71
2023/03/14 07:37:00;;;;;;;3.60;2.30;;;8.30;99.90;;;;;;5072262;28;20177;-71
2023/03/14 07:39:29;;;;;;;4.37;2.87;;;8.30;99.90;;;;;;5071563;28;20164;-71
2023/03/14 07:41:56;;;;;;;3.53;2.20;;;8.30;99.90;;;;;;5071290;28;20212;-71
2023/03/14 07:44:22;;;;;;;3.47;2.50;;;8.20;99.90;;;;;;5071500;28;20160;-71
2023/03/14 07:46:48;;;;;;;4.77;2.70;;;8.20;99.90;;;;;;5071539;28;20598;-71
2023/03/14 07:49:13;;;;;;;2.83;2.63;;;8.30;99.90;;;;;;5071231;28;20174;-71
2023/03/14 07:51:39;;;;;;;5.00;3.07;;;8.40;99.90;;;;;;5071281;28;20507;-72
2023/03/14 07:54:07;;;;;;;4.87;2.83;;;8.40;99.90;;;;;;5071613;28;20317;-71
2023/03/14 07:56:33;;;;;;;6.03;3.30;;;8.30;99.90;;;;;;5071559;28;20183;-72
2023/03/14 07:58:58;;;;;;;4.53;3.47;;;8.40;99.90;;;;;;5071396;28;20161;-70
2023/03/14 08:01:24;;;;;;;4.40;4.00;;;8.40;99.90;;;;;;5071284;28;20311;-72
2023/03/14 08:03:50;;;;;;;3.70;3.40;;;8.30;99.90;;;;;;5071413;28;20168;-71
2023/03/14 08:06:16;;;;;;;9.63;4.47;;;8.40;99.90;;;;;;5071672;28;20172;-72
2023/03/14 08:08:41;;;;;;;4.20;3.90;;;8.40;99.90;;;;;;5070576;28;20192;-72
2023/03/14 08:11:10;;;;;;;6.13;4.07;;;8.30;99.90;;;;;;5053108;28;20180;-71
2023/03/14 08:13:37;;;;;;;6.60;4.20;;;8.40;99.90;;;;;;5071187;28;20169;-73
2023/03/14 08:16:03;;;;;;;6.43;4.00;;;8.50;99.90;;;;;;5071199;28;20238;-70
2023/03/14 08:18:29;;;;;;;7.30;4.40;;;8.50;99.90;;;;;;5071467;28;20168;-71
2023/03/14 08:20:55;;;;;;;3.87;3.33;;;8.50;99.90;;;;;;5071559;28;20736;-71
2023/03/14 08:23:20;;;;;;;4.53;3.10;;;8.60;99.90;;;;;;5072097;28;20624;-71
2023/03/14 08:25:50;;;;;;;6.80;3.53;;;8.60;99.90;;;;;;5071547;28;20663;-71
2023/03/14 08:28:15;;;;;;;4.47;3.53;;;8.60;99.90;;;;;;5071255;28;20692;-70
2023/03/14 08:30:41;;;;;;;4.63;2.97;;;8.40;99.90;;;;;;5071701;28;20259;-71
2023/03/14 08:33:06;;;;;;;3.40;2.60;;;8.40;99.90;;;;;;5069482;28;20614;-71
2023/03/14 08:35:32;;;;;;;3.50;2.90;;;8.40;99.90;;;;;;5069010;28;20237;-71
2023/03/14 08:37:58;;;;;;;2.80;2.50;;;8.30;99.90;;;;;;5071111;28;20165;-70
2023/03/14 08:40:23;;;;;;;2.87;2.40;;;8.10;99.90;;;;;;5053240;28;20179;-70
2023/03/14 08:42:49;;;;;;;3.37;2.40;;;8.00;99.90;;;;;;5071717;28;20169;-70
2023/03/14 08:45:16;;;;;;;4.17;2.90;;;8.00;99.90;;;;;;5052646;28;20172;-70
2023/03/14 08:47:45;;;;;;;3.67;2.70;;;7.90;99.90;;;;;;5071009;28;20255;-70
2023/03/14 08:50:12;;;;;;;3.03;2.73;;;7.90;99.90;;;;;;5069377;28;20207;-71
2023/03/14 08:52:40;;;;;;;7.40;3.00;;;7.90;99.90;;;;;;5071222;28;20165;-70
2023/03/14 08:55:07;;;;;;;4.67;2.70;;;7.80;99.90;;;;;;5071337;28;20279;-71
2023/03/14 08:57:33;;;;;;;5.77;3.30;;;7.80;99.90;;;;;;5053181;28;20567;-70
2023/03/14 08:59:58;;;;;;;3.50;3.00;;;7.70;99.90;;;;;;5052892;28;20184;-71
2023/03/14 09:02:25;;;;;;;4.30;3.33;;;7.70;99.90;;;;;;5073799;28;20249;-71
2023/03/14 09:04:51;;;;;;;5.60;3.73;;;7.70;99.90;;;;;;5075278;28;20651;-71
2023/03/14 09:07:17;;;;;;;6.33;3.63;;;7.70;99.90;;;;;;5073905;28;20192;-71
2023/03/14 09:09:43;;;;;;;6.27;3.83;;;7.60;99.90;;;;;;5074221;28;20204;-71
2023/03/14 09:12:08;;;;;;;3.80;3.13;;;7.60;99.90;;;;;;5074756;28;20196;-71
2023/03/14 09:14:34;;;;;;;4.17;3.57;;;7.60;99.90;;;;;;5074495;28;20216;-70
2023/03/14 09:17:03;;;;;;;5.07;3.33;;;7.60;99.90;;;;;;5074641;28;20573;-71
2023/03/14 09:19:32;;;;;;;6.10;3.70;;;7.60;99.90;;;;;;5074509;28;20251;-70
2023/03/14 09:21:57;;;;;;;6.53;3.93;;;7.50;99.90;;;;;;5074672;28;20265;-71
2023/03/14 09:24:23;;;;;;;5.20;3.30;;;7.50;99.90;;;;;;5074382;28;20164;-71
2023/03/14 09:26:48;;;;;;;11.37;3.60;;;7.50;99.90;;;;;;5056417;28;20539;-71
2023/03/14 09:29:14;;;;;;;6.37;3.13;;;7.70;99.90;;;;;;5074844;28;20168;-70
2023/03/14 09:31:39;;;;;;;6.40;3.40;;;7.70;99.90;;;;;;5074036;28;20631;-72
2023/03/14 09:34:05;;;;;;;7.87;2.90;;;7.60;99.90;;;;;;5074241;28;20165;-69
2023/03/14 09:36:33;;;;;;;6.10;2.80;;;7.60;99.90;;;;;;5074667;28;20255;-73
2023/03/14 09:38:59;;;;;;;8.07;3.47;;;7.70;99.90;;;;;;5074747;28;20168;-73
2023/03/14 09:41:32;;;;;;;9.13;3.37;;;7.70;99.90;;;;;;5073845;28;20196;-71
2023/03/14 09:44:10;;;;;;;5.77;3.20;;;7.60;99.90;;;;;;5079518;28;20178;-71
2023/03/14 09:46:38;;;;;;;5.87;3.23;;;7.60;99.90;;;;;;5093840;28;20174;-71
2023/03/14 09:49:19;;;;;;;9.73;3.00;;;7.60;99.90;;;;;;5094786;28;20172;-72
2023/03/14 09:51:49;;;;;;;7.97;2.97;;;7.60;99.90;;;;;;5094290;28;20180;-72
2023/03/14 09:54:26;;;;;;;7.87;2.80;;;7.50;99.90;;;;;;5094703;28;20180;-74
2023/03/14 09:56:54;;;;;;;8.03;3.37;;;7.60;99.90;;;;;;5093617;28;20493;-73
2023/03/14 09:59:20;;;;;;;9.00;3.10;;;7.70;99.90;;;;;;5075623;28;20168;-73
2023/03/14 10:01:46;;;;;;;8.17;3.27;;;7.70;99.90;;;;;;5093175;28;20682;-72
2023/03/14 10:04:17;;;;;;;6.27;3.10;;;7.80;99.90;;;;;;5093761;28;20218;-72
2023/03/14 10:06:43;;;;;;;5.40;3.10;;;7.90;99.90;;;;;;5094651;28;20184;-71
2023/03/14 10:09:24;;;;;;;10.10;2.90;;;8.00;99.90;;;;;;5093901;28;20599;-73
2023/03/14 10:11:53;;;;;;;6.07;2.60;;;8.30;96.60;;;;;;5055898;28;20212;-68
2023/03/14 10:14:36;;;;;;;7.70;3.13;;;8.20;91.00;;;;;;5081154;28;20211;-68
2023/03/14 10:17:12;;;;;;;8.97;2.30;;;8.20;92.20;;;;;;5087459;28;20260;-70
2023/03/14 10:20:00;;;;;;;12.27;2.93;;;8.40;90.40;;;;;;5072751;28;20183;-69
2023/03/14 10:22:34;;;;;;;5.00;2.57;;;8.40;92.70;;;;;;5073353;28;20643;-71
2023/03/14 10:25:07;;;;;;;6.60;3.07;;;8.20;99.90;;;;;;5072863;28;20586;-69
2023/03/14 10:27:35;;;;;;;5.40;2.47;;;8.20;99.90;;;;;;5055570;28;20177;-69
2023/03/14 10:30:06;;;;;;;12.27;2.77;;;8.00;99.90;;;;;;5073352;28;20169;-69
2023/03/14 10:32:37;;;;;;;10.43;2.90;;;8.00;99.90;;;;;;5073594;28;20161;-70
2023/03/14 10:35:15;;;;;;;6.23;2.67;;;7.80;99.90;;;;;;5071942;28;20522;-71
2023/03/14 10:37:59;;;;;;;6.77;2.50;;;7.80;99.90;;;;;;5072521;28;20165;-72
2023/03/14 10:40:48;;;;;;;10.50;2.40;;;7.90;99.90;;;;;;5052350;28;20169;-70
2023/03/14 10:43:17;;;;;;;8.40;2.80;;;7.90;99.90;;;;;;5052431;28;20165;-70
2023/03/14 10:45:52;;;;;;;7.27;2.57;;;8.00;99.90;;;;;;5052997;28;20165;-70
2023/03/14 10:48:38;;;;;;;9.13;2.60;;;7.90;99.90;;;;;;5053165;28;20172;-70
2023/03/14 10:51:07;;;;;;;7.00;1.93;;;7.70;99.90;;;;;;5062710;28;20167;-70
2023/03/14 10:53:43;;;;;;;5.03;2.30;;;7.60;99.90;;;;;;5072641;28;20168;-71
2023/03/14 10:56:12;;;;;;;4.77;2.23;;;7.60;99.90;;;;;;5072609;28;20164;-71
2023/03/14 10:58:47;;;;;;;5.73;2.10;;;7.60;99.90;;;;;;5054496;28;20191;-70
2023/03/14 11:01:21;;;;;;;5.90;2.13;;;7.40;99.90;;;;;;5071843;28;20244;-71
2023/03/14 11:03:57;;;;;;;5.07;2.10;;;7.40;99.90;;;;;;5071882;28;20221;-71
2023/03/14 11:06:33;;;;;;;4.00;1.93;;;7.50;99.90;;;;;;5073072;28;20185;-71
2023/03/14 11:09:07;;;;;;;3.37;2.10;;;7.50;99.90;;;;;;5052570;28;20176;-72
2023/03/14 11:11:33;;;;;;;7.17;2.00;;;7.50;99.90;;;;;;5052181;28;20180;-70
2023/03/14 11:14:24;;;;;;;6.87;2.00;;;7.50;99.90;;;;;;5050044;28;20618;-71
2023/03/14 11:17:01;;;;;;;5.67;2.10;;;7.50;99.90;;;;;;5052705;28;20260;-69
2023/03/14 11:19:48;;;;;;;4.47;1.70;;;7.40;99.90;;;;;;5050711;28;20214;-69
2023/03/14 11:22:16;;;;;;;5.83;1.90;;;7.40;99.90;;;;;;5051884;28;22003;-69
2023/03/14 11:25:03;;;;;;;2.00;1.43;;;7.30;99.90;;;;;;5051394;28;20174;-70
2023/03/14 11:27:46;;;;;;;3.00;1.60;;;7.00;99.90;;;;;;5052111;28;20165;-70
2023/03/14 11:30:28;;;;;;;2.40;1.60;;;6.90;99.90;;;;;;5032532;28;20197;-71
2023/03/14 11:33:08;;;;;;;6.80;4.03;;;6.80;99.90;;;;;;5031917;28;20562;-69
2023/03/14 11:35:41;;;;;;;2.40;1.80;;;6.90;99.90;;;;;;5032643;28;20169;-70
2023/03/14 11:38:29;;;;;;;8.03;5.97;;;6.60;99.90;;;;;;5031965;28;20237;-70
2023/03/14 11:40:58;;;;;;;1.70;1.53;;;6.70;99.90;;;;;;5062125;28;20193;-70
2023/03/14 11:43:34;;;;;;;2.33;1.10;;;6.60;99.90;;;;;;5071841;28;20160;-70
2023/03/14 11:46:34;;;;;;;2.83;1.83;;;6.60;99.90;;;;;;5071031;28;20164;-70
2023/03/14 11:49:06;;;;;;;1.20;0.80;;;6.60;99.90;;;;;;4989717;28;20175;-72
2023/03/14 11:51:45;;;;;;;1.60;1.10;;;6.70;99.90;;;;;;5069966;28;20188;-71
2023/03/14 11:54:14;;;;;;;1.40;0.93;;;6.70;99.90;;;;;;5069859;28;20255;-70
2023/03/14 11:56:44;;;;;;;1.00;0.87;;;6.60;99.90;;;;;;5050073;28;20184;-71
2023/03/14 11:59:22;;;;;;;2.20;1.00;;;6.70;99.90;;;;;;5051505;28;20166;-70
2023/03/14 12:02:03;;;;;;;1.57;1.00;;;6.60;99.90;;;;;;5051595;28;20208;-72
2023/03/14 12:04:48;;;;;;;1.80;1.10;;;6.60;99.90;;;;;;5051919;28;20218;-71
2023/03/14 12:07:29;;;;;;;2.20;1.27;;;6.80;99.90;;;;;;5049342;28;20201;-70
2023/03/14 12:09:56;;;;;;;1.43;1.30;;;6.90;99.90;;;;;;5067349;28;20267;-72
2023/03/14 12:12:27;;;;;;;1.03;1.00;;;6.90;99.90;;;;;;5068440;28;20488;-70
2023/03/14 12:15:01;;;;;;;2.00;1.20;;;6.90;99.90;;;;;;5077394;28;20942;-71
2023/03/14 12:17:43;;;;;;;1.50;1.23;;;6.90;99.90;;;;;;5068968;28;20612;-70
2023/03/14 12:20:26;;;;;;;1.43;1.33;;;7.00;99.90;;;;;;5070284;28;20184;-71
2023/03/14 12:22:55;;;;;;;2.10;1.50;;;7.10;99.90;;;;;;5070719;28;20305;-72
2023/03/14 12:25:22;;;;;;;4.20;1.57;;;7.00;99.90;;;;;;5071335;28;20161;-70
2023/03/14 12:27:55;;;;;;;2.43;1.50;;;6.80;99.90;;;;;;5069546;28;20390;-69
2023/03/14 12:30:30;;;;;;;1.97;1.60;;;6.90;99.90;;;;;;5070189;28;20175;-69
2023/03/14 12:33:17;;;;;;;3.40;1.47;;;6.80;99.90;;;;;;5057822;28;20175;-70
2023/03/14 12:35:51;;;;;;;1.77;1.63;;;6.80;99.90;;;;;;5092091;28;20167;-70
2023/03/14 12:38:48;;;;;;;4.50;2.00;;;6.90;99.90;;;;;;5076948;28;20187;-71
2023/03/14 12:41:22;;;;;;;1.70;1.50;;;6.80;99.90;;;;;;5095630;28;20207;-69
2023/03/14 12:43:47;;;;;;;3.43;1.70;;;6.60;99.90;;;;;;5057018;28;20168;-71
2023/03/14 12:46:22;;;;;;;3.20;1.93;;;6.60;99.90;;;;;;5073335;28;20709;-70
2023/03/14 12:49:16;;;;;;;2.93;1.87;;;6.50;99.90;;;;;;5073785;28;20183;-70
2023/03/14 12:51:43;;;;;;;2.43;2.23;;;6.50;99.90;;;;;;5052663;28;20271;-70
2023/03/14 12:54:28;;;;;;;3.17;2.77;;;6.70;99.90;;;;;;5074470;28;20188;-70
2023/03/14 12:57:39;;;;;;;2.00;1.63;;;6.70;99.90;;;;;;5074953;28;20176;-71
2023/03/14 13:00:30;;;;;;;4.90;1.87;;;6.80;99.90;;;;;;5048831;28;20199;-70
2023/03/14 13:03:22;;;;;;;4.07;2.00;;;6.80;99.90;;;;;;5072395;28;20221;-71